West Glacier, Montana
Current Conditions -  °F | °C
As of 1:55 AM on Friday 24 Oct 2014 (Local Time) from KGPI Reporting Station
Overcast Overcast  
Wind Chill: 41°   Ceiling: 6500
Heat Index: 47°   Visibility: 10mi
Dew Point: 37°   Wind: 14mph
Humidity: 68%   Direction: 220°SW
Pressure: 29.96"   Gusts: NA
Location:  48.5°N, 113.98°W
Report Text: KGPI 240755Z AUTO 22012KT 10SM BKN065 OVC080 08/03 A2996 RMK AO2 SLP149 T00830028
Loading
Personal Weather Stations






























Interactive Weather Map
Tropical Storm Tracking
New forecast layout! Learn more

10-Day Weather Forecast

Advertisements
Track Severe Weather on mobile